North Royalton, Ohio
Current Conditions -  °F | °C
As of 9:12 AM on Thursday 27 Nov 2014 (Local Time) from KCLE Reporting Station
Light Snow Light Snow  
Wind Chill: 25°   Ceiling: 1900
Heat Index: 32°   Visibility: 3mi
Dew Point: 27°   Wind: 8mph
Humidity: 82%   Direction: 300°WNW
Pressure: 30.14"   Gusts: NA
Location:  41.31°N, 81.73°W
Report Text: KCLE 271412Z 30007KT 3SM -SN BKN019 OVC025 00/M03 A3014 RMK AO2 P0000 T00001028 $
Loading
Personal Weather Stations






























Interactive Weather Map New forecast layout! Learn more

10-Day Weather Forecast

Advertisements
Track Severe Weather on mobile